Terminal Aerodrome Forecast
Issued by NWS

Home | Current Version | Previous Version | Text Only | Print | Product List | Glossary On
Versions: 1 2 3 4 5 6 7 8 9 10 11 12 13 14 15 16 17 18 19 20 21 22 23 24 25
000
FTUS42 KGSP 241121
TAFHKY
TAF
KHKY 241121Z 2412/2512 03011KT 5SM -SHRA BR SCT005 OVC012
      TEMPO 2412/2416 2SM +SHRA BR OVC005
     FM241600 04010G18KT 4SM SHRA BR OVC007
     FM250100 03012KT 3SM -SHRA BR OVC003
     FM250900 02011KT 2SM BR OVC003=

USA.gov is the U.S. government's official web portal to all federal, state and local government web resources and services.